createdAt,value
2023-04-11T00:04:19.965Z,11.30
2023-04-11T00:09:21.640Z,11.38
2023-04-11T00:14:24.643Z,11.26
2023-04-11T00:19:26.329Z,11.19
2023-04-11T00:24:27.964Z,11.10
2023-04-11T00:29:31.180Z,10.97
2023-04-11T00:34:32.807Z,11.03
2023-04-11T00:39:34.482Z,10.97
2023-04-11T00:44:37.611Z,10.90
2023-04-11T00:49:40.706Z,10.98
2023-04-11T00:54:42.345Z,10.93
2023-04-11T00:59:46.074Z,10.89
2023-04-11T01:04:47.842Z,10.93
2023-04-11T01:09:51.353Z,10.81
2023-04-11T01:14:54.438Z,10.78
2023-04-11T01:19:56.099Z,10.78
2023-04-11T01:24:59.067Z,10.69
2023-04-11T01:30:00.869Z,10.74
2023-04-11T01:35:05.098Z,10.73
2023-04-11T01:40:09.572Z,10.72
2023-04-11T01:45:12.332Z,10.66
2023-04-11T01:50:14.031Z,10.55
2023-04-11T01:55:17.488Z,10.69
2023-04-11T02:00:20.063Z,10.63
2023-04-11T02:05:21.723Z,10.50
2023-04-11T02:10:25.014Z,10.50
2023-04-11T02:15:26.736Z,10.53
2023-04-11T02:20:28.442Z,10.48
2023-04-11T02:25:31.406Z,10.46
2023-04-11T02:30:33.015Z,10.38
2023-04-11T02:35:37.901Z,10.33
2023-04-11T02:40:41.575Z,10.28
2023-04-11T02:45:43.347Z,10.19
2023-04-11T02:50:44.941Z,10.27
2023-04-11T02:55:47.870Z,10.26
2023-04-11T03:00:49.722Z,10.15
2023-04-11T03:05:51.464Z,10.10
2023-04-11T03:10:54.536Z,10.10
2023-04-11T03:15:56.460Z,10.03
2023-04-11T03:20:58.086Z,9.92
2023-04-11T03:26:01.057Z,10.00
2023-04-11T03:31:02.745Z,9.89
2023-04-11T03:36:05.037Z,9.80
2023-04-11T03:41:08.155Z,9.88
2023-04-11T03:46:09.779Z,9.92
2023-04-11T03:51:11.421Z,9.78
2023-04-11T03:56:14.422Z,9.65
2023-04-11T04:01:16.090Z,9.70
2023-04-11T04:06:17.744Z,9.68
2023-04-11T04:11:20.866Z,9.54
2023-04-11T04:16:22.513Z,9.62
2023-04-11T04:21:24.205Z,9.65
2023-04-11T04:26:27.234Z,9.58
2023-04-11T04:31:28.880Z,9.60
2023-04-11T04:36:30.491Z,9.57
2023-04-11T04:41:33.532Z,9.46
2023-04-11T04:46:35.163Z,9.23
2023-04-11T04:51:36.994Z,9.19
2023-04-11T04:56:40.022Z,9.15
2023-04-11T05:01:41.914Z,9.19
2023-04-11T05:06:43.632Z,9.20
2023-04-11T05:11:46.626Z,9.22
2023-04-11T05:16:48.392Z,9.18
2023-04-11T05:21:50.125Z,9.16
2023-04-11T05:26:53.440Z,9.22
2023-04-11T05:31:55.670Z,9.65
2023-04-11T05:36:57.980Z,10.52
2023-04-11T05:42:01.146Z,10.95
2023-04-11T05:47:02.761Z,12.45
2023-04-11T05:52:04.961Z,13.02
2023-04-11T05:57:08.492Z,14.47
2023-04-11T06:02:10.660Z,15.30
2023-04-11T06:07:12.959Z,15.73
2023-04-11T06:12:16.281Z,16.33
2023-04-11T06:17:18.407Z,16.58
2023-04-11T06:22:20.178Z,17.06
2023-04-11T06:27:23.260Z,15.14
2023-04-11T06:32:25.024Z,15.54
2023-04-11T06:37:27.064Z,14.87
2023-04-11T06:42:30.151Z,16.13
2023-04-11T06:47:31.809Z,16.53
2023-04-11T06:52:33.470Z,18.12
2023-04-11T06:57:36.816Z,18.20
2023-04-11T07:02:38.734Z,16.04
2023-04-11T07:07:40.549Z,15.63
2023-04-11T07:12:43.556Z,15.53
2023-04-11T07:17:47.364Z,16.84
2023-04-11T07:22:49.043Z,16.27
2023-04-11T07:27:52.166Z,13.93
2023-04-11T07:32:53.865Z,14.15
2023-04-11T07:37:55.652Z,13.35
2023-04-11T07:42:59.134Z,12.92
2023-04-11T07:48:00.830Z,12.63
2023-04-11T07:53:02.555Z,12.52
2023-04-11T07:58:06.201Z,12.28
2023-04-11T08:03:10.395Z,12.08
2023-04-11T08:08:12.371Z,12.67
2023-04-11T08:13:15.581Z,12.38
2023-04-11T08:18:17.350Z,12.71
2023-04-11T08:23:19.170Z,12.37
2023-04-11T08:28:22.723Z,12.07
2023-04-11T08:33:27.422Z,12.19
2023-04-11T08:38:29.035Z,12.58
2023-04-11T08:43:34.519Z,13.21
2023-04-11T08:48:36.340Z,13.33
2023-04-11T08:53:39.694Z,13.56
2023-04-11T08:58:43.703Z,13.66
2023-04-11T09:03:51.163Z,13.31
2023-04-11T09:08:53.263Z,13.57
2023-04-11T09:14:10.208Z,14.19
2023-04-11T09:19:24.352Z,14.42
2023-04-11T09:24:26.827Z,13.78
2023-04-11T09:29:40.936Z,13.72
2023-04-11T09:34:42.821Z,14.24
2023-04-11T09:39:44.598Z,14.59
2023-04-11T09:44:55.411Z,14.74
2023-04-11T09:49:57.242Z,14.66
2023-04-11T09:55:00.367Z,14.55
2023-04-11T10:00:12.543Z,14.66
2023-04-11T10:05:17.530Z,14.72
2023-04-11T10:10:29.971Z,14.63
2023-04-11T10:16:06.266Z,14.70
2023-04-11T10:21:38.406Z,14.64
2023-04-11T10:26:48.483Z,14.65
2023-04-11T10:32:11.804Z,14.75
2023-04-11T10:37:13.603Z,14.77
2023-04-11T10:42:27.521Z,14.82
2023-04-11T10:47:31.543Z,14.54
2023-04-11T10:52:37.813Z,14.50
2023-04-11T10:58:04.106Z,14.19
2023-04-11T11:03:14.296Z,14.30
2023-04-11T11:08:27.185Z,14.64
2023-04-11T11:13:39.271Z,14.76
2023-04-11T11:18:45.704Z,14.45
2023-04-11T11:24:03.061Z,14.22
2023-04-11T11:29:05.239Z,14.38
2023-04-11T11:34:23.083Z,14.57
2023-04-11T11:39:26.752Z,14.42
2023-04-11T11:44:30.277Z,14.55
2023-04-11T11:49:47.096Z,14.23
2023-04-11T11:54:49.127Z,14.32
2023-04-11T11:59:54.554Z,14.06
2023-04-11T12:04:59.149Z,14.26
2023-04-11T12:10:01.669Z,14.38
2023-04-11T12:15:09.677Z,14.25
2023-04-11T12:20:12.668Z,14.28
2023-04-11T12:25:15.223Z,14.40
2023-04-11T12:30:21.141Z,14.27
2023-04-11T12:35:24.372Z,14.22
2023-04-11T12:40:27.422Z,14.20
2023-04-11T12:45:29.126Z,14.32
2023-04-11T12:50:32.273Z,14.21
2023-04-11T12:55:34.912Z,14.20
2023-04-11T13:00:36.644Z,14.20
2023-04-11T13:05:40.496Z,14.28
2023-04-11T13:10:42.663Z,14.05
2023-04-11T13:15:44.744Z,13.92
2023-04-11T13:20:47.925Z,13.96
2023-04-11T13:25:49.745Z,14.11
2023-04-11T13:30:51.385Z,14.07
2023-04-11T13:35:54.408Z,14.09
2023-04-11T13:40:56.100Z,14.07
2023-04-11T13:45:58.288Z,14.11
2023-04-11T13:51:01.464Z,14.15
2023-04-11T13:56:03.128Z,14.12
2023-04-11T14:01:05.254Z,14.12
2023-04-11T14:06:08.980Z,14.19
2023-04-11T14:11:10.644Z,14.21
2023-04-11T14:16:12.355Z,14.14
2023-04-11T14:21:15.408Z,14.21
2023-04-11T14:26:17.012Z,14.07
2023-04-11T14:31:18.676Z,13.97
2023-04-11T14:36:21.769Z,14.07
2023-04-11T14:41:23.732Z,13.93
2023-04-11T14:46:26.824Z,13.52
2023-04-11T14:51:31.382Z,13.41
2023-04-11T14:56:33.138Z,13.32
2023-04-11T15:01:34.951Z,13.40
2023-04-11T15:06:37.986Z,13.37
2023-04-11T15:11:39.594Z,13.29
2023-04-11T15:16:41.234Z,13.49
2023-04-11T15:21:44.297Z,13.21
2023-04-11T15:26:45.946Z,13.38
2023-04-11T15:31:47.687Z,13.28
2023-04-11T15:36:50.709Z,13.39
2023-04-11T15:41:52.394Z,13.28
2023-04-11T15:46:54.010Z,13.30
2023-04-11T15:51:58.980Z,13.29
2023-04-11T15:57:01.139Z,13.30
2023-04-11T16:02:02.898Z,13.34
2023-04-11T16:07:06.439Z,13.47
2023-04-11T16:12:08.261Z,13.51
2023-04-11T16:17:11.175Z,13.37
2023-04-11T16:22:14.228Z,13.36
2023-04-11T16:27:15.913Z,13.36
2023-04-11T16:32:17.833Z,13.41
2023-04-11T16:37:21.015Z,13.37
2023-04-11T16:42:25.453Z,13.36
2023-04-11T16:47:27.555Z,13.24
2023-04-11T16:52:31.330Z,13.23
2023-04-11T16:57:33.061Z,13.35
2023-04-11T17:02:34.987Z,13.21
2023-04-11T17:07:38.046Z,13.20
2023-04-11T17:12:39.676Z,13.07
2023-04-11T17:17:41.436Z,12.96
2023-04-11T17:22:44.637Z,12.81
2023-04-11T17:27:46.337Z,12.69
2023-04-11T17:32:48.106Z,12.58
2023-04-11T17:37:51.702Z,12.51
2023-04-11T17:42:53.453Z,12.37
2023-04-11T17:47:55.142Z,12.26
2023-04-11T17:52:58.206Z,12.09
2023-04-11T17:57:59.810Z,12.00
2023-04-11T18:03:01.411Z,11.94
2023-04-11T18:08:04.619Z,11.75
2023-04-11T18:13:06.299Z,11.67
2023-04-11T18:18:08.086Z,11.50
2023-04-11T18:23:11.123Z,11.44
2023-04-11T18:28:12.810Z,11.28
2023-04-11T18:33:14.511Z,11.22
2023-04-11T18:38:17.498Z,11.21
2023-04-11T18:43:19.255Z,11.15
2023-04-11T18:48:21.002Z,11.08
2023-04-11T18:53:24.107Z,11.02
2023-04-11T18:58:26.778Z,11.05
2023-04-11T19:03:30.298Z,10.98
2023-04-11T19:08:33.433Z,11.00
2023-04-11T19:13:35.149Z,10.84
2023-04-11T19:18:36.858Z,10.87
2023-04-11T19:23:39.972Z,10.74
2023-04-11T19:28:41.796Z,10.75
2023-04-11T19:33:43.469Z,10.61
2023-04-11T19:38:46.480Z,10.64
2023-04-11T19:43:48.410Z,10.63
2023-04-11T19:48:50.055Z,10.54
2023-04-11T19:53:53.034Z,10.56
2023-04-11T19:58:54.659Z,10.52
2023-04-11T20:03:56.750Z,10.57
2023-04-11T20:09:00.000Z,10.53
2023-04-11T20:14:01.675Z,10.56
2023-04-11T20:19:03.347Z,10.51
2023-04-11T20:24:06.800Z,10.54
2023-04-11T20:29:08.426Z,10.54
2023-04-11T20:34:10.221Z,10.56
2023-04-11T20:39:13.399Z,10.69
2023-04-11T20:44:15.103Z,10.61
2023-04-11T20:49:19.882Z,10.49
2023-04-11T20:54:23.067Z,10.53
2023-04-11T20:59:25.778Z,10.59
2023-04-11T21:04:27.619Z,10.45
2023-04-11T21:09:30.983Z,10.46
2023-04-11T21:14:32.658Z,10.38
2023-04-11T21:19:34.556Z,10.43
2023-04-11T21:24:37.589Z,10.51
2023-04-11T21:29:39.806Z,10.26
2023-04-11T21:34:44.349Z,10.38
2023-04-11T21:39:48.095Z,10.36
2023-04-11T21:44:49.768Z,10.24
2023-04-11T21:49:54.206Z,10.35
2023-04-11T21:54:57.363Z,10.24
2023-04-11T21:59:59.042Z,10.14
2023-04-11T22:05:06.427Z,10.07
2023-04-11T22:10:10.990Z,10.22
2023-04-11T22:15:13.026Z,10.27
2023-04-11T22:20:14.751Z,10.07
2023-04-11T22:25:17.871Z,10.00
2023-04-11T22:30:19.550Z,9.98
2023-04-11T22:35:21.386Z,10.07
2023-04-11T22:40:24.796Z,9.92
2023-04-11T22:45:26.518Z,9.96
2023-04-11T22:50:28.238Z,10.07
2023-04-11T22:55:32.138Z,10.07
2023-04-11T23:00:33.733Z,9.82
2023-04-11T23:05:37.333Z,9.72
2023-04-11T23:10:40.396Z,9.61
2023-04-11T23:15:42.791Z,9.73
2023-04-11T23:20:46.050Z,9.73
2023-04-11T23:25:49.052Z,9.78
2023-04-11T23:30:50.748Z,9.80
2023-04-11T23:35:52.835Z,9.71
2023-04-11T23:40:55.860Z,9.73
2023-04-11T23:45:57.970Z,9.70
2023-04-11T23:50:59.541Z,9.85
2023-04-11T23:56:02.696Z,9.77
